sensor_id;sensor_type;location;lat;lon;timestamp;temperature;humidity
59307;DHT22;47983;53.016;-2.260;2023-02-01T00:01:11;6.30;99.90
59307;DHT22;47983;53.016;-2.260;2023-02-01T00:03:39;6.40;99.90
59307;DHT22;47983;53.016;-2.260;2023-02-01T00:06:07;6.30;99.90
59307;DHT22;47983;53.016;-2.260;2023-02-01T00:08:35;6.30;99.90
59307;DHT22;47983;53.016;-2.260;2023-02-01T00:11:05;6.30;99.90
59307;DHT22;47983;53.016;-2.260;2023-02-01T00:13:35;6.30;99.90
59307;DHT22;47983;53.016;-2.260;2023-02-01T00:18:37;6.30;99.90
59307;DHT22;47983;53.016;-2.260;2023-02-01T00:21:05;6.30;99.90
59307;DHT22;47983;53.016;-2.260;2023-02-01T00:23:34;6.30;99.90
59307;DHT22;47983;53.016;-2.260;2023-02-01T00:26:04;6.40;99.90
59307;DHT22;47983;53.016;-2.260;2023-02-01T00:28:32;6.40;99.90
59307;DHT22;47983;53.016;-2.260;2023-02-01T00:31:02;6.40;99.90
59307;DHT22;47983;53.016;-2.260;2023-02-01T00:33:31;6.50;99.90
59307;DHT22;47983;53.016;-2.260;2023-02-01T00:36:01;6.40;99.90
59307;DHT22;47983;53.016;-2.260;2023-02-01T00:38:30;6.50;99.90
59307;DHT22;47983;53.016;-2.260;2023-02-01T00:41:04;6.50;99.90
59307;DHT22;47983;53.016;-2.260;2023-02-01T00:43:32;6.50;99.90
59307;DHT22;47983;53.016;-2.260;2023-02-01T00:46:00;6.70;99.90
59307;DHT22;47983;53.016;-2.260;2023-02-01T00:48:28;6.70;99.90
59307;DHT22;47983;53.016;-2.260;2023-02-01T00:51:04;6.70;99.90
59307;DHT22;47983;53.016;-2.260;2023-02-01T00:53:33;6.80;99.90
59307;DHT22;47983;53.016;-2.260;2023-02-01T00:56:01;6.80;99.90
59307;DHT22;47983;53.016;-2.260;2023-02-01T00:58:29;6.80;99.90
59307;DHT22;47983;53.016;-2.260;2023-02-01T01:01:05;6.80;99.90
59307;DHT22;47983;53.016;-2.260;2023-02-01T01:03:36;6.80;99.90
59307;DHT22;47983;53.016;-2.260;2023-02-01T01:06:06;6.90;99.90
59307;DHT22;47983;53.016;-2.260;2023-02-01T01:08:36;6.90;99.90
59307;DHT22;47983;53.016;-2.260;2023-02-01T01:13:38;6.90;99.90
59307;DHT22;47983;53.016;-2.260;2023-02-01T01:16:08;6.90;99.90
59307;DHT22;47983;53.016;-2.260;2023-02-01T01:18:36;6.90;99.90
59307;DHT22;47983;53.016;-2.260;2023-02-01T01:21:05;6.90;99.90
59307;DHT22;47983;53.016;-2.260;2023-02-01T01:23:34;7.00;99.90
59307;DHT22;47983;53.016;-2.260;2023-02-01T01:26:22;6.90;99.90
59307;DHT22;47983;53.016;-2.260;2023-02-01T01:28:50;6.90;99.90
59307;DHT22;47983;53.016;-2.260;2023-02-01T01:31:19;6.90;99.90
59307;DHT22;47983;53.016;-2.260;2023-02-01T01:33:49;6.90;99.90
59307;DHT22;47983;53.016;-2.260;2023-02-01T01:36:17;6.90;99.90
59307;DHT22;47983;53.016;-2.260;2023-02-01T01:38:46;6.90;99.90
59307;DHT22;47983;53.016;-2.260;2023-02-01T01:41:20;6.90;99.90
59307;DHT22;47983;53.016;-2.260;2023-02-01T01:44:00;6.90;99.90
59307;DHT22;47983;53.016;-2.260;2023-02-01T01:46:31;6.80;99.90
59307;DHT22;47983;53.016;-2.260;2023-02-01T01:49:14;6.90;99.90
59307;DHT22;47983;53.016;-2.260;2023-02-01T01:51:50;6.90;99.90
59307;DHT22;47983;53.016;-2.260;2023-02-01T01:54:23;6.80;99.90
59307;DHT22;47983;53.016;-2.260;2023-02-01T01:56:57;6.80;99.90
59307;DHT22;47983;53.016;-2.260;2023-02-01T01:59:25;6.70;99.90
59307;DHT22;47983;53.016;-2.260;2023-02-01T02:01:53;6.60;99.90
59307;DHT22;47983;53.016;-2.260;2023-02-01T02:04:22;6.50;99.90
59307;DHT22;47983;53.016;-2.260;2023-02-01T02:06:58;6.40;99.90
59307;DHT22;47983;53.016;-2.260;2023-02-01T02:09:27;6.50;99.90
59307;DHT22;47983;53.016;-2.260;2023-02-01T02:11:54;6.40;99.90
59307;DHT22;47983;53.016;-2.260;2023-02-01T02:14:23;6.50;99.90
59307;DHT22;47983;53.016;-2.260;2023-02-01T02:22:53;6.60;99.90
59307;DHT22;47983;53.016;-2.260;2023-02-01T02:34:19;6.60;99.90
59307;DHT22;47983;53.016;-2.260;2023-02-01T02:43:04;6.40;99.90
59307;DHT22;47983;53.016;-2.260;2023-02-01T02:52:16;6.20;99.90
59307;DHT22;47983;53.016;-2.260;2023-02-01T02:55:05;6.10;99.90
59307;DHT22;47983;53.016;-2.260;2023-02-01T02:57:37;6.10;99.90
59307;DHT22;47983;53.016;-2.260;2023-02-01T03:00:32;6.10;99.90
59307;DHT22;47983;53.016;-2.260;2023-02-01T03:03:19;6.10;99.90
59307;DHT22;47983;53.016;-2.260;2023-02-01T03:06:12;6.10;99.90
59307;DHT22;47983;53.016;-2.260;2023-02-01T03:08:40;6.10;99.90
59307;DHT22;47983;53.016;-2.260;2023-02-01T03:11:14;6.20;99.90
59307;DHT22;47983;53.016;-2.260;2023-02-01T03:13:54;6.20;99.90
59307;DHT22;47983;53.016;-2.260;2023-02-01T03:16:46;6.20;99.90
59307;DHT22;47983;53.016;-2.260;2023-02-01T03:19:33;6.30;99.90
59307;DHT22;47983;53.016;-2.260;2023-02-01T03:22:09;6.30;99.90
59307;DHT22;47983;53.016;-2.260;2023-02-01T03:24:47;6.30;99.90
59307;DHT22;47983;53.016;-2.260;2023-02-01T03:27:30;6.30;99.90
59307;DHT22;47983;53.016;-2.260;2023-02-01T03:30:21;6.30;99.90
59307;DHT22;47983;53.016;-2.260;2023-02-01T03:32:54;6.40;99.90
59307;DHT22;47983;53.016;-2.260;2023-02-01T03:38:28;6.30;99.90
59307;DHT22;47983;53.016;-2.260;2023-02-01T03:44:10;6.30;99.90
59307;DHT22;47983;53.016;-2.260;2023-02-01T03:46:51;6.30;99.90
59307;DHT22;47983;53.016;-2.260;2023-02-01T03:49:25;6.30;99.90
59307;DHT22;47983;53.016;-2.260;2023-02-01T03:51:56;6.20;99.90
59307;DHT22;47983;53.016;-2.260;2023-02-01T03:54:27;6.30;99.90
59307;DHT22;47983;53.016;-2.260;2023-02-01T03:56:59;6.30;99.90
59307;DHT22;47983;53.016;-2.260;2023-02-01T03:59:27;6.30;99.90
59307;DHT22;47983;53.016;-2.260;2023-02-01T04:01:54;6.30;99.90
59307;DHT22;47983;53.016;-2.260;2023-02-01T04:04:22;6.30;99.90
59307;DHT22;47983;53.016;-2.260;2023-02-01T04:06:53;6.30;99.90
59307;DHT22;47983;53.016;-2.260;2023-02-01T04:09:21;6.30;99.90
59307;DHT22;47983;53.016;-2.260;2023-02-01T04:11:48;6.30;99.90
59307;DHT22;47983;53.016;-2.260;2023-02-01T04:14:16;6.30;99.90
59307;DHT22;47983;53.016;-2.260;2023-02-01T04:16:44;6.30;99.90
59307;DHT22;47983;53.016;-2.260;2023-02-01T04:19:12;6.30;99.90
59307;DHT22;47983;53.016;-2.260;2023-02-01T04:21:39;6.20;99.90
59307;DHT22;47983;53.016;-2.260;2023-02-01T04:24:07;6.20;99.90
59307;DHT22;47983;53.016;-2.260;2023-02-01T04:26:36;6.10;99.90
59307;DHT22;47983;53.016;-2.260;2023-02-01T04:29:04;6.00;99.90
59307;DHT22;47983;53.016;-2.260;2023-02-01T04:31:31;5.90;99.90
59307;DHT22;47983;53.016;-2.260;2023-02-01T04:33:59;5.80;99.90
59307;DHT22;47983;53.016;-2.260;2023-02-01T04:36:27;5.80;99.90
59307;DHT22;47983;53.016;-2.260;2023-02-01T04:38:54;5.70;99.90
59307;DHT22;47983;53.016;-2.260;2023-02-01T04:41:22;5.70;99.90
59307;DHT22;47983;53.016;-2.260;2023-02-01T04:43:50;5.70;99.90
59307;DHT22;47983;53.016;-2.260;2023-02-01T04:46:20;5.70;99.90
59307;DHT22;47983;53.016;-2.260;2023-02-01T04:48:48;5.60;99.90
59307;DHT22;47983;53.016;-2.260;2023-02-01T04:51:16;5.60;99.90
59307;DHT22;47983;53.016;-2.260;2023-02-01T04:53:45;5.50;99.90
59307;DHT22;47983;53.016;-2.260;2023-02-01T04:56:13;5.50;99.90
59307;DHT22;47983;53.016;-2.260;2023-02-01T04:58:40;5.50;99.90
59307;DHT22;47983;53.016;-2.260;2023-02-01T05:01:08;5.60;99.90
59307;DHT22;47983;53.016;-2.260;2023-02-01T05:03:35;5.60;99.90
59307;DHT22;47983;53.016;-2.260;2023-02-01T05:06:03;5.50;99.90
59307;DHT22;47983;53.016;-2.260;2023-02-01T05:08:32;5.50;99.90
59307;DHT22;47983;53.016;-2.260;2023-02-01T05:11:00;5.50;99.90
59307;DHT22;47983;53.016;-2.260;2023-02-01T05:13:30;5.60;99.90
59307;DHT22;47983;53.016;-2.260;2023-02-01T05:16:16;5.50;99.90
59307;DHT22;47983;53.016;-2.260;2023-02-01T05:18:44;5.50;99.90
59307;DHT22;47983;53.016;-2.260;2023-02-01T05:21:11;5.50;99.90
59307;DHT22;47983;53.016;-2.260;2023-02-01T05:23:39;5.50;99.90
59307;DHT22;47983;53.016;-2.260;2023-02-01T05:26:25;5.40;99.90
59307;DHT22;47983;53.016;-2.260;2023-02-01T05:28:53;5.40;99.90
59307;DHT22;47983;53.016;-2.260;2023-02-01T05:31:21;5.30;99.90
59307;DHT22;47983;53.016;-2.260;2023-02-01T05:33:49;5.30;99.90
59307;DHT22;47983;53.016;-2.260;2023-02-01T05:36:17;5.30;99.90
59307;DHT22;47983;53.016;-2.260;2023-02-01T05:38:45;5.30;99.90
59307;DHT22;47983;53.016;-2.260;2023-02-01T05:41:12;5.40;99.90
59307;DHT22;47983;53.016;-2.260;2023-02-01T05:43:40;5.50;99.90
59307;DHT22;47983;53.016;-2.260;2023-02-01T05:46:07;5.50;99.90
59307;DHT22;47983;53.016;-2.260;2023-02-01T05:48:41;5.50;99.90
59307;DHT22;47983;53.016;-2.260;2023-02-01T05:51:10;5.50;99.90
59307;DHT22;47983;53.016;-2.260;2023-02-01T05:53:38;5.60;99.90
59307;DHT22;47983;53.016;-2.260;2023-02-01T05:56:06;5.60;99.90
59307;DHT22;47983;53.016;-2.260;2023-02-01T05:58:34;5.60;99.90
59307;DHT22;47983;53.016;-2.260;2023-02-01T06:01:02;5.60;99.90
59307;DHT22;47983;53.016;-2.260;2023-02-01T06:03:30;5.60;99.90
59307;DHT22;47983;53.016;-2.260;2023-02-01T06:05:58;5.60;99.90
59307;DHT22;47983;53.016;-2.260;2023-02-01T06:08:27;5.60;99.90
59307;DHT22;47983;53.016;-2.260;2023-02-01T06:11:03;5.60;99.90
59307;DHT22;47983;53.016;-2.260;2023-02-01T06:13:32;5.60;99.90
59307;DHT22;47983;53.016;-2.260;2023-02-01T06:16:02;5.50;99.90
59307;DHT22;47983;53.016;-2.260;2023-02-01T06:18:30;5.50;99.90
59307;DHT22;47983;53.016;-2.260;2023-02-01T06:20:59;5.50;99.90
59307;DHT22;47983;53.016;-2.260;2023-02-01T06:23:31;5.50;99.90
59307;DHT22;47983;53.016;-2.260;2023-02-01T06:28:29;5.40;99.90
59307;DHT22;47983;53.016;-2.260;2023-02-01T06:30:57;5.50;99.90
59307;DHT22;47983;53.016;-2.260;2023-02-01T06:33:25;5.40;99.90
59307;DHT22;47983;53.016;-2.260;2023-02-01T06:35:58;5.40;99.90
59307;DHT22;47983;53.016;-2.260;2023-02-01T06:38:26;5.40;99.90
59307;DHT22;47983;53.016;-2.260;2023-02-01T06:40:55;5.50;99.90
59307;DHT22;47983;53.016;-2.260;2023-02-01T06:43:24;5.60;99.90
59307;DHT22;47983;53.016;-2.260;2023-02-01T06:45:53;5.70;99.90
59307;DHT22;47983;53.016;-2.260;2023-02-01T06:48:20;5.70;99.90
59307;DHT22;47983;53.016;-2.260;2023-02-01T06:50:48;5.80;99.90
59307;DHT22;47983;53.016;-2.260;2023-02-01T06:53:15;5.80;99.90
59307;DHT22;47983;53.016;-2.260;2023-02-01T06:56:01;5.90;99.90
59307;DHT22;47983;53.016;-2.260;2023-02-01T06:58:31;6.00;99.90
59307;DHT22;47983;53.016;-2.260;2023-02-01T07:01:04;6.10;99.90
59307;DHT22;47983;53.016;-2.260;2023-02-01T07:03:32;6.10;99.90
59307;DHT22;47983;53.016;-2.260;2023-02-01T07:06:00;6.10;99.90
59307;DHT22;47983;53.016;-2.260;2023-02-01T07:08:28;6.20;99.90
59307;DHT22;47983;53.016;-2.260;2023-02-01T07:10:56;6.30;99.90
59307;DHT22;47983;53.016;-2.260;2023-02-01T07:13:24;6.30;99.90
59307;DHT22;47983;53.016;-2.260;2023-02-01T07:18:19;6.40;99.90
59307;DHT22;47983;53.016;-2.260;2023-02-01T07:20:50;6.40;99.90
59307;DHT22;47983;53.016;-2.260;2023-02-01T07:23:18;6.40;99.90
59307;DHT22;47983;53.016;-2.260;2023-02-01T07:25:47;6.50;99.90
59307;DHT22;47983;53.016;-2.260;2023-02-01T07:28:15;6.50;99.90
59307;DHT22;47983;53.016;-2.260;2023-02-01T07:30:43;6.50;99.90
59307;DHT22;47983;53.016;-2.260;2023-02-01T07:33:10;6.50;99.90
59307;DHT22;47983;53.016;-2.260;2023-02-01T07:35:38;6.50;99.90
59307;DHT22;47983;53.016;-2.260;2023-02-01T07:38:05;6.60;99.90
59307;DHT22;47983;53.016;-2.260;2023-02-01T07:40:33;6.60;99.90
59307;DHT22;47983;53.016;-2.260;2023-02-01T07:43:00;6.60;99.90
59307;DHT22;47983;53.016;-2.260;2023-02-01T07:45:28;6.70;99.90
59307;DHT22;47983;53.016;-2.260;2023-02-01T07:47:56;6.70;99.90
59307;DHT22;47983;53.016;-2.260;2023-02-01T07:50:23;6.70;99.90
59307;DHT22;47983;53.016;-2.260;2023-02-01T07:52:51;6.70;99.90
59307;DHT22;47983;53.016;-2.260;2023-02-01T07:55:20;6.70;99.90
59307;DHT22;47983;53.016;-2.260;2023-02-01T07:57:50;6.70;99.90
59307;DHT22;47983;53.016;-2.260;2023-02-01T08:00:20;6.70;99.90
59307;DHT22;47983;53.016;-2.260;2023-02-01T08:03:06;6.70;99.90
59307;DHT22;47983;53.016;-2.260;2023-02-01T08:05:34;6.80;99.90
59307;DHT22;47983;53.016;-2.260;2023-02-01T08:08:01;6.80;99.90
59307;DHT22;47983;53.016;-2.260;2023-02-01T08:10:29;6.80;99.90
59307;DHT22;47983;53.016;-2.260;2023-02-01T08:13:00;6.80;99.90
59307;DHT22;47983;53.016;-2.260;2023-02-01T08:15:29;6.80;99.90
59307;DHT22;47983;53.016;-2.260;2023-02-01T08:17:57;6.80;99.90
59307;DHT22;47983;53.016;-2.260;2023-02-01T08:20:26;6.70;99.90
59307;DHT22;47983;53.016;-2.260;2023-02-01T08:22:54;6.70;99.90
59307;DHT22;47983;53.016;-2.260;2023-02-01T08:25:23;6.80;99.90
59307;DHT22;47983;53.016;-2.260;2023-02-01T08:27:51;6.70;99.90
59307;DHT22;47983;53.016;-2.260;2023-02-01T08:30:20;6.80;99.90
59307;DHT22;47983;53.016;-2.260;2023-02-01T08:32:50;6.80;99.90
59307;DHT22;47983;53.016;-2.260;2023-02-01T08:35:18;6.80;99.90
59307;DHT22;47983;53.016;-2.260;2023-02-01T08:37:48;6.80;99.90
59307;DHT22;47983;53.016;-2.260;2023-02-01T08:40:17;6.90;99.90
59307;DHT22;47983;53.016;-2.260;2023-02-01T08:42:44;6.90;99.90
59307;DHT22;47983;53.016;-2.260;2023-02-01T08:45:26;6.90;99.90
59307;DHT22;47983;53.016;-2.260;2023-02-01T08:47:56;6.80;99.90
59307;DHT22;47983;53.016;-2.260;2023-02-01T08:50:25;6.90;99.90
59307;DHT22;47983;53.016;-2.260;2023-02-01T08:52:54;6.90;99.90
59307;DHT22;47983;53.016;-2.260;2023-02-01T08:55:21;6.90;99.90
59307;DHT22;47983;53.016;-2.260;2023-02-01T08:57:49;7.00;99.90
59307;DHT22;47983;53.016;-2.260;2023-02-01T09:00:17;7.10;99.90
59307;DHT22;47983;53.016;-2.260;2023-02-01T09:02:45;7.10;99.90
59307;DHT22;47983;53.016;-2.260;2023-02-01T09:05:13;7.20;99.90
59307;DHT22;47983;53.016;-2.260;2023-02-01T09:07:43;7.20;99.90
59307;DHT22;47983;53.016;-2.260;2023-02-01T09:10:11;7.30;99.90
59307;DHT22;47983;53.016;-2.260;2023-02-01T09:12:38;7.30;99.90
59307;DHT22;47983;53.016;-2.260;2023-02-01T09:15:06;7.30;99.90
59307;DHT22;47983;53.016;-2.260;2023-02-01T09:17:36;7.40;99.90
59307;DHT22;47983;53.016;-2.260;2023-02-01T09:20:04;7.40;99.90
59307;DHT22;47983;53.016;-2.260;2023-02-01T09:22:31;7.40;99.90
59307;DHT22;47983;53.016;-2.260;2023-02-01T09:24:59;7.50;99.90
59307;DHT22;47983;53.016;-2.260;2023-02-01T09:27:27;7.60;99.90
59307;DHT22;47983;53.016;-2.260;2023-02-01T09:29:54;7.60;99.90
59307;DHT22;47983;53.016;-2.260;2023-02-01T09:32:23;7.70;99.90
59307;DHT22;47983;53.016;-2.260;2023-02-01T09:34:52;7.70;99.90
59307;DHT22;47983;53.016;-2.260;2023-02-01T09:37:20;7.70;99.90
59307;DHT22;47983;53.016;-2.260;2023-02-01T09:39:47;7.80;99.90
59307;DHT22;47983;53.016;-2.260;2023-02-01T09:45:06;7.80;99.90
59307;DHT22;47983;53.016;-2.260;2023-02-01T09:47:43;7.80;99.90
59307;DHT22;47983;53.016;-2.260;2023-02-01T09:50:43;7.80;99.90
59307;DHT22;47983;53.016;-2.260;2023-02-01T09:55:46;7.90;99.90
59307;DHT22;47983;53.016;-2.260;2023-02-01T09:58:22;7.90;99.90
59307;DHT22;47983;53.016;-2.260;2023-02-01T10:00:54;7.90;99.90
59307;DHT22;47983;53.016;-2.260;2023-02-01T10:03:33;8.00;99.90
59307;DHT22;47983;53.016;-2.260;2023-02-01T10:17:11;8.30;99.90
59307;DHT22;47983;53.016;-2.260;2023-02-01T10:22:45;8.40;99.90
59307;DHT22;47983;53.016;-2.260;2023-02-01T10:28:15;8.60;99.90
59307;DHT22;47983;53.016;-2.260;2023-02-01T10:30:48;8.60;99.90
59307;DHT22;47983;53.016;-2.260;2023-02-01T10:33:25;8.70;99.90
59307;DHT22;47983;53.016;-2.260;2023-02-01T10:36:16;8.80;99.90
59307;DHT22;47983;53.016;-2.260;2023-02-01T10:38:47;8.90;99.90
59307;DHT22;47983;53.016;-2.260;2023-02-01T10:41:19;9.00;99.90
59307;DHT22;47983;53.016;-2.260;2023-02-01T10:43:54;9.10;99.90
59307;DHT22;47983;53.016;-2.260;2023-02-01T10:46:24;10.00;99.90
59307;DHT22;47983;53.016;-2.260;2023-02-01T10:48:55;9.10;99.90
59307;DHT22;47983;53.016;-2.260;2023-02-01T10:51:29;9.10;99.90
59307;DHT22;47983;53.016;-2.260;2023-02-01T10:54:11;9.20;99.90
59307;DHT22;47983;53.016;-2.260;2023-02-01T10:56:44;9.20;99.90
59307;DHT22;47983;53.016;-2.260;2023-02-01T10:59:18;9.30;99.90
59307;DHT22;47983;53.016;-2.260;2023-02-01T11:01:48;9.40;99.90
59307;DHT22;47983;53.016;-2.260;2023-02-01T11:04:18;9.40;99.90
59307;DHT22;47983;53.016;-2.260;2023-02-01T11:06:51;9.40;99.90
59307;DHT22;47983;53.016;-2.260;2023-02-01T11:09:22;9.50;99.90
59307;DHT22;47983;53.016;-2.260;2023-02-01T11:16:58;9.80;99.90
59307;DHT22;47983;53.016;-2.260;2023-02-01T11:19:27;9.90;99.90
59307;DHT22;47983;53.016;-2.260;2023-02-01T11:21:58;10.10;99.90
59307;DHT22;47983;53.016;-2.260;2023-02-01T11:24:32;10.10;99.90
59307;DHT22;47983;53.016;-2.260;2023-02-01T11:27:04;10.10;99.90
59307;DHT22;47983;53.016;-2.260;2023-02-01T11:29:43;10.10;99.90
59307;DHT22;47983;53.016;-2.260;2023-02-01T11:32:13;10.00;99.90
59307;DHT22;47983;53.016;-2.260;2023-02-01T11:34:55;9.90;99.90
59307;DHT22;47983;53.016;-2.260;2023-02-01T11:37:31;9.80;99.90
59307;DHT22;47983;53.016;-2.260;2023-02-01T11:40:01;9.70;99.90
59307;DHT22;47983;53.016;-2.260;2023-02-01T11:42:29;9.60;99.90
59307;DHT22;47983;53.016;-2.260;2023-02-01T11:45:24;9.60;99.90
59307;DHT22;47983;53.016;-2.260;2023-02-01T11:47:53;9.60;99.90
59307;DHT22;47983;53.016;-2.260;2023-02-01T11:53:35;9.60;99.90
59307;DHT22;47983;53.016;-2.260;2023-02-01T12:05:23;9.60;99.90
59307;DHT22;47983;53.016;-2.260;2023-02-01T12:16:00;10.70;99.90
59307;DHT22;47983;53.016;-2.260;2023-02-01T12:18:39;11.00;99.90
59307;DHT22;47983;53.016;-2.260;2023-02-01T12:21:39;11.20;99.90
59307;DHT22;47983;53.016;-2.260;2023-02-01T12:27:13;11.40;99.90
59307;DHT22;47983;53.016;-2.260;2023-02-01T12:32:56;12.20;99.90
59307;DHT22;47983;53.016;-2.260;2023-02-01T12:46:40;11.50;99.90
59307;DHT22;47983;53.016;-2.260;2023-02-01T12:49:17;11.50;99.90
59307;DHT22;47983;53.016;-2.260;2023-02-01T12:51:48;11.60;99.90
59307;DHT22;47983;53.016;-2.260;2023-02-01T12:57:11;11.50;99.90
59307;DHT22;47983;53.016;-2.260;2023-02-01T13:00:04;11.20;99.90
59307;DHT22;47983;53.016;-2.260;2023-02-01T13:02:44;11.10;99.90
59307;DHT22;47983;53.016;-2.260;2023-02-01T13:08:00;10.70;99.90
59307;DHT22;47983;53.016;-2.260;2023-02-01T13:10:34;10.70;99.90
59307;DHT22;47983;53.016;-2.260;2023-02-01T13:19:08;10.40;99.90
59307;DHT22;47983;53.016;-2.260;2023-02-01T13:21:42;10.30;99.90
59307;DHT22;47983;53.016;-2.260;2023-02-01T13:26:53;10.30;99.90
59307;DHT22;47983;53.016;-2.260;2023-02-01T13:29:23;10.50;99.90
59307;DHT22;47983;53.016;-2.260;2023-02-01T13:35:03;11.10;99.90
59307;DHT22;47983;53.016;-2.260;2023-02-01T13:40:44;11.50;99.90
59307;DHT22;47983;53.016;-2.260;2023-02-01T13:43:27;11.30;99.90
59307;DHT22;47983;53.016;-2.260;2023-02-01T13:46:01;11.20;99.90
59307;DHT22;47983;53.016;-2.260;2023-02-01T13:48:51;11.20;99.90
59307;DHT22;47983;53.016;-2.260;2023-02-01T13:51:43;11.10;99.90
59307;DHT22;47983;53.016;-2.260;2023-02-01T13:54:33;11.10;99.90
59307;DHT22;47983;53.016;-2.260;2023-02-01T13:57:04;11.70;99.90
59307;DHT22;47983;53.016;-2.260;2023-02-01T14:05:12;12.20;99.90
59307;DHT22;47983;53.016;-2.260;2023-02-01T14:13:21;11.30;99.90
59307;DHT22;47983;53.016;-2.260;2023-02-01T14:21:21;11.00;99.90
59307;DHT22;47983;53.016;-2.260;2023-02-01T14:26:43;10.70;99.90
59307;DHT22;47983;53.016;-2.260;2023-02-01T14:29:39;10.70;99.90
59307;DHT22;47983;53.016;-2.260;2023-02-01T14:32:18;10.60;99.90
59307;DHT22;47983;53.016;-2.260;2023-02-01T14:42:21;10.40;99.90
59307;DHT22;47983;53.016;-2.260;2023-02-01T14:44:50;10.30;99.90
59307;DHT22;47983;53.016;-2.260;2023-02-01T14:47:27;10.30;99.90
59307;DHT22;47983;53.016;-2.260;2023-02-01T14:50:10;10.30;99.90
59307;DHT22;47983;53.016;-2.260;2023-02-01T14:52:43;10.20;99.90
59307;DHT22;47983;53.016;-2.260;2023-02-01T14:55:29;10.20;99.90
59307;DHT22;47983;53.016;-2.260;2023-02-01T14:57:59;10.10;99.90
59307;DHT22;47983;53.016;-2.260;2023-02-01T15:00:30;10.10;99.90
59307;DHT22;47983;53.016;-2.260;2023-02-01T15:03:31;10.10;99.90
59307;DHT22;47983;53.016;-2.260;2023-02-01T15:06:02;10.10;99.90
59307;DHT22;47983;53.016;-2.260;2023-02-01T15:08:37;10.10;99.90
59307;DHT22;47983;53.016;-2.260;2023-02-01T15:11:15;10.10;99.90
59307;DHT22;47983;53.016;-2.260;2023-02-01T15:13:51;10.10;99.90
59307;DHT22;47983;53.016;-2.260;2023-02-01T15:16:24;10.10;99.90
59307;DHT22;47983;53.016;-2.260;2023-02-01T15:19:07;10.10;99.90
59307;DHT22;47983;53.016;-2.260;2023-02-01T15:21:48;10.10;99.90
59307;DHT22;47983;53.016;-2.260;2023-02-01T15:24:22;10.10;99.90
59307;DHT22;47983;53.016;-2.260;2023-02-01T15:26:52;10.00;99.90
59307;DHT22;47983;53.016;-2.260;2023-02-01T15:29:21;10.00;99.90
59307;DHT22;47983;53.016;-2.260;2023-02-01T15:31:51;9.90;99.90
59307;DHT22;47983;53.016;-2.260;2023-02-01T15:34:20;9.90;99.90
59307;DHT22;47983;53.016;-2.260;2023-02-01T15:36:48;9.90;99.90
59307;DHT22;47983;53.016;-2.260;2023-02-01T15:39:29;9.90;99.90
59307;DHT22;47983;53.016;-2.260;2023-02-01T15:42:10;9.90;99.90
59307;DHT22;47983;53.016;-2.260;2023-02-01T15:44:40;9.80;99.90
59307;DHT22;47983;53.016;-2.260;2023-02-01T15:47:15;9.80;99.90
59307;DHT22;47983;53.016;-2.260;2023-02-01T15:49:45;9.80;99.90
59307;DHT22;47983;53.016;-2.260;2023-02-01T15:52:42;9.80;99.90
59307;DHT22;47983;53.016;-2.260;2023-02-01T15:57:58;9.70;99.90
59307;DHT22;47983;53.016;-2.260;2023-02-01T16:00:30;9.70;99.90
59307;DHT22;47983;53.016;-2.260;2023-02-01T16:03:05;9.70;99.90
59307;DHT22;47983;53.016;-2.260;2023-02-01T16:05:37;9.60;99.90
59307;DHT22;47983;53.016;-2.260;2023-02-01T16:08:22;9.60;99.90
59307;DHT22;47983;53.016;-2.260;2023-02-01T16:10:54;9.60;99.90
59307;DHT22;47983;53.016;-2.260;2023-02-01T16:13:21;9.60;99.90
59307;DHT22;47983;53.016;-2.260;2023-02-01T16:15:49;9.60;99.90
59307;DHT22;47983;53.016;-2.260;2023-02-01T16:18:17;9.60;99.90
59307;DHT22;47983;53.016;-2.260;2023-02-01T16:20:47;9.60;99.90
59307;DHT22;47983;53.016;-2.260;2023-02-01T16:23:15;9.60;99.90
59307;DHT22;47983;53.016;-2.260;2023-02-01T16:25:42;9.60;99.90
59307;DHT22;47983;53.016;-2.260;2023-02-01T16:28:10;9.60;99.90
59307;DHT22;47983;53.016;-2.260;2023-02-01T16:30:38;9.60;99.90
59307;DHT22;47983;53.016;-2.260;2023-02-01T16:33:09;9.50;99.90
59307;DHT22;47983;53.016;-2.260;2023-02-01T16:35:39;9.50;99.90
59307;DHT22;47983;53.016;-2.260;2023-02-01T16:38:12;9.50;99.90
59307;DHT22;47983;53.016;-2.260;2023-02-01T16:40:42;9.50;99.90
59307;DHT22;47983;53.016;-2.260;2023-02-01T16:43:17;9.50;99.90
59307;DHT22;47983;53.016;-2.260;2023-02-01T16:45:46;9.50;99.90
59307;DHT22;47983;53.016;-2.260;2023-02-01T16:48:25;9.50;99.90
59307;DHT22;47983;53.016;-2.260;2023-02-01T16:50:55;9.40;99.90
59307;DHT22;47983;53.016;-2.260;2023-02-01T16:53:25;9.40;99.90
59307;DHT22;47983;53.016;-2.260;2023-02-01T16:55:55;9.40;99.90
59307;DHT22;47983;53.016;-2.260;2023-02-01T16:58:25;9.40;99.90
59307;DHT22;47983;53.016;-2.260;2023-02-01T17:00:54;9.40;99.90
59307;DHT22;47983;53.016;-2.260;2023-02-01T17:03:22;9.40;99.90
59307;DHT22;47983;53.016;-2.260;2023-02-01T17:05:52;9.30;99.90
59307;DHT22;47983;53.016;-2.260;2023-02-01T17:08:49;9.30;99.90
59307;DHT22;47983;53.016;-2.260;2023-02-01T17:11:18;9.30;99.90
59307;DHT22;47983;53.016;-2.260;2023-02-01T17:13:45;9.30;99.90
59307;DHT22;47983;53.016;-2.260;2023-02-01T17:19:16;9.30;99.90
59307;DHT22;47983;53.016;-2.260;2023-02-01T17:21:47;9.30;99.90
59307;DHT22;47983;53.016;-2.260;2023-02-01T17:24:22;9.30;99.90
59307;DHT22;47983;53.016;-2.260;2023-02-01T17:26:52;8.00;99.90
59307;DHT22;47983;53.016;-2.260;2023-02-01T17:29:20;9.30;99.90
59307;DHT22;47983;53.016;-2.260;2023-02-01T17:31:50;9.30;99.90
59307;DHT22;47983;53.016;-2.260;2023-02-01T17:34:19;9.30;99.90
59307;DHT22;47983;53.016;-2.260;2023-02-01T17:36:47;9.30;99.90
59307;DHT22;47983;53.016;-2.260;2023-02-01T17:39:15;9.30;99.90
59307;DHT22;47983;53.016;-2.260;2023-02-01T17:42:04;9.30;99.90
59307;DHT22;47983;53.016;-2.260;2023-02-01T17:44:32;9.30;99.90
59307;DHT22;47983;53.016;-2.260;2023-02-01T17:47:00;9.30;99.90
59307;DHT22;47983;53.016;-2.260;2023-02-01T17:49:27;9.30;99.90
59307;DHT22;47983;53.016;-2.260;2023-02-01T17:51:56;9.30;99.90
59307;DHT22;47983;53.016;-2.260;2023-02-01T17:54:24;9.20;99.90
59307;DHT22;47983;53.016;-2.260;2023-02-01T17:56:52;9.20;99.90
59307;DHT22;47983;53.016;-2.260;2023-02-01T17:59:20;9.30;99.90
59307;DHT22;47983;53.016;-2.260;2023-02-01T18:01:48;9.30;99.90
59307;DHT22;47983;53.016;-2.260;2023-02-01T18:04:18;9.30;99.90
59307;DHT22;47983;53.016;-2.260;2023-02-01T18:06:45;9.20;99.90
59307;DHT22;47983;53.016;-2.260;2023-02-01T18:09:13;9.20;99.90
59307;DHT22;47983;53.016;-2.260;2023-02-01T18:11:41;9.10;99.90
59307;DHT22;47983;53.016;-2.260;2023-02-01T18:14:11;9.10;99.90
59307;DHT22;47983;53.016;-2.260;2023-02-01T18:16:42;9.10;99.90
59307;DHT22;47983;53.016;-2.260;2023-02-01T18:19:10;9.00;99.90
59307;DHT22;47983;53.016;-2.260;2023-02-01T18:21:40;9.00;99.90
59307;DHT22;47983;53.016;-2.260;2023-02-01T18:24:12;9.00;99.90
59307;DHT22;47983;53.016;-2.260;2023-02-01T18:26:41;9.00;99.90
59307;DHT22;47983;53.016;-2.260;2023-02-01T18:29:10;9.00;99.90
59307;DHT22;47983;53.016;-2.260;2023-02-01T18:31:44;9.00;99.90
59307;DHT22;47983;53.016;-2.260;2023-02-01T18:34:12;9.00;99.90
59307;DHT22;47983;53.016;-2.260;2023-02-01T18:36:48;9.00;99.90
59307;DHT22;47983;53.016;-2.260;2023-02-01T18:39:16;8.90;99.90